createdAt,value
2017-09-05T00:00:00.810Z,1013.08
2017-09-05T00:01:00.828Z,1013.12
2017-09-05T00:02:00.855Z,1013.12
2017-09-05T00:03:00.875Z,1013.1
2017-09-05T00:04:00.893Z,1013.12
2017-09-05T00:05:00.917Z,1013.12
2017-09-05T00:06:00.941Z,1013.14
2017-09-05T00:07:00.963Z,1013.1
2017-09-05T00:08:00.986Z,1013.08
2017-09-05T00:09:01.008Z,1013.05
2017-09-05T00:10:01.029Z,1013.06
2017-09-05T00:11:01.049Z,1013.06
2017-09-05T00:12:01.077Z,1013.05
2017-09-05T00:13:01.098Z,1013.05
2017-09-05T00:14:01.120Z,1013.06
2017-09-05T00:15:01.144Z,1013.05
2017-09-05T00:16:01.163Z,1013.06
2017-09-05T00:17:01.189Z,1013.05
2017-09-05T00:18:01.208Z,1013.06
2017-09-05T00:19:01.230Z,1013.13
2017-09-05T00:20:01.249Z,1013.13
2017-09-05T00:21:01.277Z,1013.13
2017-09-05T00:22:01.295Z,1013.11
2017-09-05T00:23:01.318Z,1013.13
2017-09-05T00:24:01.339Z,1013.14
2017-09-05T00:25:01.361Z,1013.09
2017-09-05T00:26:01.387Z,1013.11
2017-09-05T00:27:01.409Z,1013.12
2017-09-05T00:29:01.453Z,1013.1
2017-09-05T00:30:01.472Z,1013.09
2017-09-05T00:31:01.496Z,1013.1
2017-09-05T00:32:01.515Z,1013.07
2017-09-05T00:33:01.542Z,1013.09
2017-09-05T00:34:01.564Z,1013.12
2017-09-05T00:35:01.582Z,1013.05
2017-09-05T00:36:01.602Z,1013.03
2017-09-05T00:37:01.626Z,1013.05
2017-09-05T00:38:01.648Z,1013.06
2017-09-05T00:39:01.666Z,1013.09
2017-09-05T00:40:01.695Z,1013.07
2017-09-05T00:41:01.714Z,1013.1
2017-09-05T00:42:01.738Z,1013.05
2017-09-05T00:43:01.757Z,1013.07
2017-09-05T00:45:01.810Z,1013.05
2017-09-05T00:46:01.821Z,1013.09
2017-09-05T00:47:01.879Z,1013.08
2017-09-05T00:48:01.871Z,1013.08
2017-09-05T00:49:01.888Z,1013.14
2017-09-05T00:50:01.916Z,1013.11
2017-09-05T00:51:01.937Z,1013.16
2017-09-05T00:52:01.956Z,1013.13
2017-09-05T00:53:01.991Z,1013.18
2017-09-05T00:54:01.998Z,1013.15
2017-09-05T00:55:02.024Z,1013.15
2017-09-05T00:56:02.043Z,1013.12
2017-09-05T00:57:02.068Z,1013.14
2017-09-05T00:58:02.087Z,1013.12
2017-09-05T00:59:02.111Z,1013.14
2017-09-05T01:01:02.150Z,1013.11
2017-09-05T01:02:02.174Z,1013.08
2017-09-05T01:03:02.200Z,1013.09
2017-09-05T01:04:02.218Z,1013.08
2017-09-05T01:05:02.240Z,1013.1
2017-09-05T01:06:02.263Z,1013.07
2017-09-05T01:07:02.286Z,1013.06
2017-09-05T01:08:02.305Z,1013.06
2017-09-05T01:09:02.323Z,1013.05
2017-09-05T01:10:02.349Z,1013.01
2017-09-05T01:11:02.372Z,1013
2017-09-05T01:12:02.395Z,1013
2017-09-05T01:13:02.414Z,1012.95
2017-09-05T01:14:02.442Z,1012.98
2017-09-05T01:15:02.459Z,1012.98
2017-09-05T01:17:02.502Z,1012.98
2017-09-05T01:18:02.530Z,1012.97
2017-09-05T01:19:02.545Z,1013.02
2017-09-05T01:20:02.568Z,1013
2017-09-05T01:21:02.595Z,1013.03
2017-09-05T01:22:02.610Z,1013.04
2017-09-05T01:23:02.633Z,1013.04
2017-09-05T01:24:02.658Z,1013.02
2017-09-05T01:25:02.673Z,1013.01
2017-09-05T01:26:02.697Z,1012.98
2017-09-05T01:27:02.719Z,1013.02
2017-09-05T01:28:02.742Z,1013.02
2017-09-05T01:29:02.769Z,1013
2017-09-05T01:30:02.789Z,1012.99
2017-09-05T01:32:02.833Z,1012.99
2017-09-05T01:33:02.854Z,1012.95
2017-09-05T01:34:02.876Z,1012.98
2017-09-05T01:35:02.896Z,1013
2017-09-05T01:36:02.918Z,1012.99
2017-09-05T01:37:02.937Z,1013
2017-09-05T01:38:02.960Z,1012.99
2017-09-05T01:39:02.981Z,1013.02
2017-09-05T01:40:03.005Z,1013.03
2017-09-05T01:41:03.024Z,1013.02
2017-09-05T01:42:03.047Z,1013.01
2017-09-05T01:43:03.071Z,1012.96
2017-09-05T01:44:03.091Z,1012.95
2017-09-05T01:45:03.113Z,1012.99
2017-09-05T01:46:03.138Z,1012.97
2017-09-05T01:47:03.155Z,1012.93
2017-09-05T01:48:03.174Z,1012.92
2017-09-05T01:49:03.194Z,1012.88
2017-09-05T01:50:03.223Z,1012.96
2017-09-05T01:51:03.240Z,1012.9
2017-09-05T01:52:03.266Z,1012.86
2017-09-05T01:53:03.288Z,1012.92
2017-09-05T01:54:03.311Z,1012.86
2017-09-05T01:55:03.326Z,1012.84
2017-09-05T01:56:03.350Z,1012.85
2017-09-05T01:57:03.373Z,1012.9
2017-09-05T01:58:03.395Z,1012.89
2017-09-05T01:59:03.414Z,1012.89
2017-09-05T02:00:03.439Z,1012.92
2017-09-05T02:01:03.458Z,1012.89
2017-09-05T02:02:03.482Z,1012.87
2017-09-05T02:04:03.525Z,1012.84
2017-09-05T02:05:03.544Z,1012.86
2017-09-05T02:06:03.565Z,1012.83
2017-09-05T02:07:03.587Z,1012.85
2017-09-05T02:08:03.612Z,1012.78
2017-09-05T02:09:03.635Z,1012.81
2017-09-05T02:10:03.654Z,1012.82
2017-09-05T02:11:03.676Z,1012.85
2017-09-05T02:12:03.696Z,1012.82
2017-09-05T02:13:03.720Z,1012.81
2017-09-05T02:14:03.740Z,1012.85
2017-09-05T02:15:03.758Z,1012.83
2017-09-05T02:16:03.786Z,1012.8
2017-09-05T02:17:03.800Z,1012.87
2017-09-05T02:18:03.829Z,1012.81
2017-09-05T02:20:03.871Z,1012.88
2017-09-05T02:21:03.891Z,1012.86
2017-09-05T02:22:03.914Z,1012.87
2017-09-05T02:23:03.934Z,1012.81
2017-09-05T02:24:03.950Z,1012.85
2017-09-05T02:25:03.980Z,1012.82
2017-09-05T02:26:04.001Z,1012.86
2017-09-05T02:27:04.022Z,1012.79
2017-09-05T02:28:04.043Z,1012.85
2017-09-05T02:29:04.110Z,1012.86
2017-09-05T02:30:04.084Z,1012.84
2017-09-05T02:31:04.102Z,1012.87
2017-09-05T02:32:04.127Z,1012.84
2017-09-05T02:33:04.147Z,1012.83
2017-09-05T02:34:04.170Z,1012.82
2017-09-05T02:36:04.211Z,1012.86
2017-09-05T02:37:04.239Z,1012.84
2017-09-05T02:38:04.260Z,1012.82
2017-09-05T02:39:04.276Z,1012.79
2017-09-05T02:40:04.303Z,1012.79
2017-09-05T02:41:04.319Z,1012.79
2017-09-05T02:42:04.345Z,1012.76
2017-09-05T02:43:04.359Z,1012.77
2017-09-05T02:44:04.388Z,1012.77
2017-09-05T02:45:04.406Z,1012.76
2017-09-05T02:46:04.428Z,1012.81
2017-09-05T02:47:04.480Z,1012.83
2017-09-05T02:48:04.475Z,1012.83
2017-09-05T02:49:04.491Z,1012.83
2017-09-05T02:50:04.516Z,1012.83
2017-09-05T02:52:04.553Z,1012.9
2017-09-05T02:53:04.576Z,1012.87
2017-09-05T02:54:04.602Z,1012.89
2017-09-05T02:55:04.622Z,1012.92
2017-09-05T02:56:04.643Z,1012.94
2017-09-05T02:57:04.659Z,1012.94
2017-09-05T02:58:04.691Z,1012.96
2017-09-05T02:59:04.706Z,1012.91
2017-09-05T03:00:04.729Z,1012.95
2017-09-05T03:01:04.751Z,1012.93
2017-09-05T03:02:04.774Z,1012.94
2017-09-05T03:03:04.792Z,1012.9
2017-09-05T03:04:04.816Z,1012.92
2017-09-05T03:05:04.832Z,1012.89
2017-09-05T03:07:04.878Z,1012.88
2017-09-05T03:08:04.899Z,1012.82
2017-09-05T03:09:04.923Z,1012.87
2017-09-05T03:10:04.943Z,1012.89
2017-09-05T03:11:04.964Z,1012.88
2017-09-05T03:12:04.988Z,1012.88
2017-09-05T03:13:05.007Z,1012.9
2017-09-05T03:14:05.028Z,1012.93
2017-09-05T03:15:05.058Z,1012.88
2017-09-05T03:16:05.069Z,1012.91
2017-09-05T03:17:05.088Z,1012.89
2017-09-05T03:18:05.116Z,1012.9
2017-09-05T03:19:05.135Z,1012.91
2017-09-05T03:20:05.156Z,1012.85
2017-09-05T03:21:05.177Z,1012.86
2017-09-05T03:22:05.203Z,1012.84
2017-09-05T03:23:05.219Z,1012.87
2017-09-05T03:24:05.245Z,1012.88
2017-09-05T03:25:05.261Z,1012.85
2017-09-05T03:26:05.285Z,1012.82
2017-09-05T03:27:05.304Z,1012.83
2017-09-05T03:28:05.329Z,1012.83
2017-09-05T03:29:05.346Z,1012.84
2017-09-05T03:30:05.370Z,1012.83
2017-09-05T03:31:05.394Z,1012.81
2017-09-05T03:32:05.410Z,1012.83
2017-09-05T03:33:05.436Z,1012.83
2017-09-05T03:34:05.453Z,1012.84
2017-09-05T03:35:05.473Z,1012.82
2017-09-05T03:36:05.495Z,1012.84
2017-09-05T03:37:05.517Z,1012.79
2017-09-05T03:39:05.561Z,1012.79
2017-09-05T03:40:05.577Z,1012.81
2017-09-05T03:41:05.600Z,1012.83
2017-09-05T03:42:05.621Z,1012.82
2017-09-05T03:43:05.643Z,1012.82
2017-09-05T03:44:05.668Z,1012.79
2017-09-05T03:45:05.686Z,1012.8
2017-09-05T03:46:05.703Z,1012.82
2017-09-05T03:47:05.730Z,1012.77
2017-09-05T03:48:05.744Z,1012.77
2017-09-05T03:49:05.772Z,1012.73
2017-09-05T03:50:05.793Z,1012.78
2017-09-05T03:51:05.814Z,1012.75
2017-09-05T03:52:05.830Z,1012.73
2017-09-05T03:53:05.855Z,1012.77
2017-09-05T03:55:05.894Z,1012.81
2017-09-05T03:56:05.917Z,1012.8
2017-09-05T03:57:05.937Z,1012.82
2017-09-05T03:58:05.963Z,1012.82
2017-09-05T03:59:05.979Z,1012.81
2017-09-05T04:00:06.005Z,1012.85
2017-09-05T04:01:06.027Z,1012.89
2017-09-05T04:02:06.042Z,1012.9
2017-09-05T04:03:06.064Z,1012.86
2017-09-05T04:04:06.088Z,1012.93
2017-09-05T04:05:06.107Z,1012.93
2017-09-05T04:06:06.127Z,1012.94
2017-09-05T04:07:06.147Z,1012.95
2017-09-05T04:08:06.170Z,1012.97
2017-09-05T04:09:06.196Z,1012.96
2017-09-05T04:11:06.236Z,1012.98
2017-09-05T04:12:06.254Z,1012.96
2017-09-05T04:13:06.276Z,1012.97
2017-09-05T04:14:06.291Z,1012.94
2017-09-05T04:15:06.319Z,1012.97
2017-09-05T04:16:06.335Z,1012.98
2017-09-05T04:17:06.362Z,1012.94
2017-09-05T04:18:06.379Z,1012.94
2017-09-05T04:19:06.406Z,1012.99
2017-09-05T04:20:06.422Z,1012.98
2017-09-05T04:21:06.442Z,1012.98
2017-09-05T04:22:06.465Z,1012.97
2017-09-05T04:23:06.483Z,1013.01
2017-09-05T04:24:06.508Z,1012.96
2017-09-05T04:25:06.534Z,1012.95
2017-09-05T04:27:06.564Z,1012.95
2017-09-05T04:28:06.590Z,1012.97
2017-09-05T04:29:06.606Z,1012.92
2017-09-05T04:30:06.634Z,1012.95
2017-09-05T04:31:06.651Z,1012.94
2017-09-05T04:32:06.678Z,1012.96
2017-09-05T04:33:06.694Z,1012.94
2017-09-05T04:34:06.719Z,1012.99
2017-09-05T04:35:06.736Z,1012.97
2017-09-05T04:36:06.759Z,1012.91
2017-09-05T04:37:06.773Z,1012.92
2017-09-05T04:38:06.800Z,1012.91
2017-09-05T04:39:06.820Z,1012.92
2017-09-05T04:40:06.843Z,1012.92
2017-09-05T04:42:06.880Z,1012.9
2017-09-05T04:43:06.905Z,1012.88
2017-09-05T04:44:06.926Z,1012.9
2017-09-05T04:45:06.946Z,1012.93
2017-09-05T04:46:06.971Z,1012.99
2017-09-05T04:47:06.990Z,1012.99
2017-09-05T04:48:07.014Z,1013.04
2017-09-05T04:49:07.027Z,1013.02
2017-09-05T04:50:07.054Z,1013.06
2017-09-05T04:51:07.070Z,1013.06
2017-09-05T04:52:07.092Z,1013.07
2017-09-05T04:53:07.117Z,1013.11
2017-09-05T04:54:07.139Z,1013.08
2017-09-05T04:55:07.156Z,1013.09
2017-09-05T04:56:07.180Z,1013.08
2017-09-05T04:57:07.204Z,1013.14
2017-09-05T04:58:07.223Z,1013.13
2017-09-05T04:59:07.244Z,1013.11
2017-09-05T05:00:07.267Z,1013.11
2017-09-05T05:01:07.285Z,1013.13
2017-09-05T05:02:07.309Z,1013.17
2017-09-05T05:03:07.329Z,1013.14
2017-09-05T05:04:07.347Z,1013.17
2017-09-05T05:05:07.372Z,1013.16
2017-09-05T05:06:07.394Z,1013.18
2017-09-05T05:07:07.416Z,1013.19
2017-09-05T05:08:07.431Z,1013.18
2017-09-05T05:09:07.455Z,1013.16
2017-09-05T05:10:07.479Z,1013.19
2017-09-05T05:11:07.498Z,1013.2
2017-09-05T05:12:07.516Z,1013.24
2017-09-05T05:14:07.561Z,1013.28
2017-09-05T05:15:07.586Z,1013.24
2017-09-05T05:16:07.609Z,1013.25
2017-09-05T05:17:07.629Z,1013.21
2017-09-05T05:18:07.702Z,1013.2
2017-09-05T05:19:07.670Z,1013.23
2017-09-05T05:20:07.691Z,1013.23
2017-09-05T05:21:07.712Z,1013.31
2017-09-05T05:22:07.732Z,1013.23
2017-09-05T05:23:07.760Z,1013.29
2017-09-05T05:24:07.780Z,1013.35
2017-09-05T05:25:07.803Z,1013.28
2017-09-05T05:26:07.826Z,1013.3
2017-09-05T05:27:07.844Z,1013.32
2017-09-05T05:28:07.870Z,1013.35
2017-09-05T05:30:07.911Z,1013.31
2017-09-05T05:31:07.935Z,1013.38
2017-09-05T05:32:07.954Z,1013.37
2017-09-05T05:33:07.980Z,1013.36
2017-09-05T05:34:07.999Z,1013.38
2017-09-05T05:35:08.025Z,1013.36
2017-09-05T05:36:08.043Z,1013.36
2017-09-05T05:37:08.066Z,1013.37
2017-09-05T05:38:08.089Z,1013.33
2017-09-05T05:39:08.113Z,1013.35
2017-09-05T05:40:08.135Z,1013.34
2017-09-05T05:41:08.154Z,1013.36
2017-09-05T05:42:08.179Z,1013.38
2017-09-05T05:43:08.198Z,1013.4
2017-09-05T05:44:08.222Z,1013.4
2017-09-05T05:46:08.264Z,1013.54
2017-09-05T05:47:08.289Z,1013.54
2017-09-05T05:48:08.309Z,1013.47
2017-09-05T05:49:08.335Z,1013.52
2017-09-05T05:50:08.356Z,1013.47
2017-09-05T05:51:08.379Z,1013.5
2017-09-05T05:52:08.401Z,1013.64
2017-09-05T05:53:08.418Z,1013.92
2017-09-05T05:54:08.448Z,1014.18
2017-09-05T05:55:08.466Z,1014.31
2017-09-05T05:56:08.492Z,1014.3
2017-09-05T05:57:08.513Z,1014.38
2017-09-05T05:58:08.539Z,1014.46
2017-09-05T05:59:08.562Z,1014.49
2017-09-05T06:00:08.587Z,1014.48
2017-09-05T06:02:08.639Z,1014.5
2017-09-05T06:03:08.660Z,1014.56
2017-09-05T06:04:08.685Z,1014.67
2017-09-05T06:05:08.714Z,1014.69
2017-09-05T06:06:08.739Z,1014.65
2017-09-05T06:07:08.817Z,1014.7
2017-09-05T06:08:08.791Z,1014.71
2017-09-05T06:09:08.817Z,1014.68
2017-09-05T06:10:08.845Z,1014.62
2017-09-05T06:11:08.872Z,1014.69
2017-09-05T06:12:08.906Z,1014.76
2017-09-05T06:13:08.925Z,1014.73
2017-09-05T06:14:08.960Z,1014.71
2017-09-05T06:15:08.989Z,1014.75
2017-09-05T06:17:09.045Z,1014.85
2017-09-05T06:18:09.075Z,1014.88
2017-09-05T06:19:09.105Z,1014.86
2017-09-05T06:20:09.135Z,1014.88
2017-09-05T06:21:09.162Z,1014.93
2017-09-05T06:22:09.192Z,1014.92
2017-09-05T06:23:09.223Z,1014.98
2017-09-05T06:24:09.255Z,1014.95
2017-09-05T06:25:09.278Z,1015
2017-09-05T06:26:09.310Z,1015.03
2017-09-05T06:27:09.346Z,1015.04
2017-09-05T06:28:09.375Z,1015.1
2017-09-05T06:29:09.406Z,1015.11
2017-09-05T06:30:09.437Z,1015.16
2017-09-05T06:31:09.470Z,1015.21
2017-09-05T06:32:09.500Z,1015.21
2017-09-05T06:33:09.531Z,1015.26
2017-09-05T06:34:09.563Z,1015.26
2017-09-05T06:35:09.596Z,1015.25
2017-09-05T06:36:09.630Z,1015.16
2017-09-05T06:37:09.661Z,1015.19
2017-09-05T06:38:09.697Z,1015.22
2017-09-05T06:39:09.724Z,1015.19
2017-09-05T06:40:09.755Z,1015.18
2017-09-05T06:41:09.792Z,1015.15
2017-09-05T06:42:09.826Z,1015.18
2017-09-05T06:43:09.857Z,1015.2
2017-09-05T06:44:09.888Z,1015.14
2017-09-05T06:45:09.921Z,1015.17
2017-09-05T06:46:09.953Z,1015.15
2017-09-05T06:47:09.983Z,1015.13
2017-09-05T06:49:10.052Z,1015.02
2017-09-05T06:50:10.083Z,1015.02
2017-09-05T06:51:10.122Z,1015
2017-09-05T06:52:10.153Z,1014.95
2017-09-05T06:53:10.189Z,1014.96
2017-09-05T06:54:10.216Z,1014.91
2017-09-05T06:55:10.252Z,1014.93
2017-09-05T06:56:10.288Z,1014.89
2017-09-05T06:57:10.322Z,1014.91
2017-09-05T06:58:10.353Z,1014.86
2017-09-05T06:59:10.391Z,1014.82
2017-09-05T07:00:10.424Z,1014.84
2017-09-05T07:01:10.450Z,1014.8
2017-09-05T07:02:10.488Z,1014.76
2017-09-05T07:03:10.519Z,1014.76
2017-09-05T07:05:10.588Z,1014.73
2017-09-05T07:06:10.621Z,1014.7
2017-09-05T07:07:10.659Z,1014.66
2017-09-05T07:08:10.693Z,1014.68
2017-09-05T07:09:10.823Z,1014.62
2017-09-05T07:10:10.757Z,1014.66
2017-09-05T07:11:10.789Z,1014.68
2017-09-05T07:12:10.826Z,1014.66
2017-09-05T07:13:10.863Z,1014.69
2017-09-05T07:14:10.895Z,1014.69
2017-09-05T07:15:10.931Z,1014.72
2017-09-05T07:16:10.961Z,1014.7
2017-09-05T07:17:10.997Z,1014.69
2017-09-05T07:18:11.029Z,1014.73
2017-09-05T07:19:11.066Z,1014.69
2017-09-05T07:21:11.131Z,1014.68
2017-09-05T07:22:11.166Z,1014.68
2017-09-05T07:23:11.199Z,1014.66
2017-09-05T07:24:11.233Z,1014.66
2017-09-05T07:25:11.269Z,1014.63
2017-09-05T07:26:11.305Z,1014.63
2017-09-05T07:27:11.345Z,1014.64
2017-09-05T07:28:11.372Z,1014.59
2017-09-05T07:29:11.405Z,1014.59
2017-09-05T07:30:11.440Z,1014.61
2017-09-05T07:31:11.474Z,1014.53
2017-09-05T07:32:11.505Z,1014.52
2017-09-05T07:33:11.541Z,1014.48
2017-09-05T07:34:11.579Z,1014.45
2017-09-05T07:35:11.607Z,1014.44
2017-09-05T07:37:11.771Z,1014.37
2017-09-05T07:38:11.709Z,1014.39
2017-09-05T07:39:11.743Z,1014.38
2017-09-05T07:40:11.875Z,1014.38
2017-09-05T07:41:11.806Z,1014.4
2017-09-05T07:42:11.842Z,1014.41
2017-09-05T07:43:11.883Z,1014.47
2017-09-05T07:44:11.909Z,1014.41
2017-09-05T07:45:11.943Z,1014.38
2017-09-05T07:46:11.978Z,1014.31
2017-09-05T07:47:12.009Z,1014.3
2017-09-05T07:48:12.049Z,1014.27
2017-09-05T07:49:12.078Z,1014.24
2017-09-05T07:50:12.118Z,1014.21
2017-09-05T07:52:12.282Z,1014.14
2017-09-05T07:53:12.212Z,1014.26
2017-09-05T07:54:12.248Z,1014.25
2017-09-05T07:55:12.286Z,1014.22
2017-09-05T07:56:12.315Z,1014.21
2017-09-05T07:57:12.345Z,1014.11
2017-09-05T07:58:12.378Z,1013.96
2017-09-05T07:59:12.415Z,1014.01
2017-09-05T08:00:12.544Z,1013.95
2017-09-05T08:01:12.483Z,1013.98
2017-09-05T08:02:12.514Z,1013.94
2017-09-05T08:03:12.550Z,1013.95
2017-09-05T08:04:12.577Z,1013.96
2017-09-05T08:05:12.610Z,1013.91
2017-09-05T08:06:12.644Z,1013.89
2017-09-05T08:07:12.682Z,1013.93
2017-09-05T08:08:12.710Z,1013.9
2017-09-05T08:09:12.749Z,1013.87
2017-09-05T08:10:12.780Z,1013.89
2017-09-05T08:11:12.815Z,1013.9
2017-09-05T08:12:12.846Z,1013.91
2017-09-05T08:13:12.984Z,1013.96
2017-09-05T08:14:12.912Z,1013.96
2017-09-05T08:15:12.944Z,1014
2017-09-05T08:16:13.125Z,1013.95
2017-09-05T08:17:13.011Z,1013.98
2017-09-05T08:18:13.040Z,1013.93
2017-09-05T08:19:13.075Z,1013.91
2017-09-05T08:20:13.106Z,1013.93
2017-09-05T08:21:13.139Z,1013.98
2017-09-05T08:22:13.178Z,1013.97
2017-09-05T08:24:13.237Z,1013.97
2017-09-05T08:25:13.269Z,1013.95
2017-09-05T08:26:13.301Z,1013.92
2017-09-05T08:27:13.339Z,1013.96
2017-09-05T08:28:13.371Z,1013.96
2017-09-05T08:29:13.400Z,1013.97
2017-09-05T08:30:13.436Z,1013.97
2017-09-05T08:31:13.470Z,1013.91
2017-09-05T08:32:13.497Z,1013.92
2017-09-05T08:33:13.530Z,1013.95
2017-09-05T08:34:13.564Z,1013.91
2017-09-05T08:35:13.597Z,1013.98
2017-09-05T08:36:13.630Z,1013.95
2017-09-05T08:37:13.658Z,1014.02
2017-09-05T08:38:13.694Z,1014
2017-09-05T08:40:13.756Z,1014.01
2017-09-05T08:41:13.788Z,1014.05
2017-09-05T08:42:13.828Z,1014.06
2017-09-05T08:43:13.955Z,1014.03
2017-09-05T08:44:13.885Z,1014.06
2017-09-05T08:45:14.018Z,1014.04
2017-09-05T08:46:13.952Z,1014.05
2017-09-05T08:47:13.981Z,1014.09
2017-09-05T08:48:14.011Z,1014.05
2017-09-05T08:49:14.143Z,1014.08
2017-09-05T08:50:14.077Z,1014.08
2017-09-05T08:51:14.112Z,1014.06
2017-09-05T08:52:14.144Z,1014.04
2017-09-05T08:53:14.276Z,1014.02
2017-09-05T08:54:14.204Z,1014.07
2017-09-05T08:56:14.269Z,1014.06
2017-09-05T08:57:14.300Z,1014.05
2017-09-05T08:58:14.334Z,1014.04
2017-09-05T08:59:14.363Z,1014.02
2017-09-05T09:00:14.397Z,1014.09
2017-09-05T09:01:14.579Z,1014.08
2017-09-05T09:02:14.457Z,1014.06
2017-09-05T09:03:14.488Z,1014
2017-09-05T09:04:14.521Z,1014.04
2017-09-05T09:05:14.552Z,1014.01
2017-09-05T09:06:14.584Z,1014.07
2017-09-05T09:07:14.616Z,1014.05
2017-09-05T09:08:14.648Z,1014.07
2017-09-05T09:09:14.680Z,1014.05
2017-09-05T09:10:14.709Z,1014
2017-09-05T09:12:14.776Z,1014.01
2017-09-05T09:13:14.806Z,1014.01
2017-09-05T09:14:14.837Z,1013.96
2017-09-05T09:15:14.872Z,1013.98
2017-09-05T09:16:14.901Z,1014.02
2017-09-05T09:17:14.940Z,1014.02
2017-09-05T09:18:14.969Z,1014.03
2017-09-05T09:19:14.998Z,1014.05
2017-09-05T09:20:15.130Z,1014.06
2017-09-05T09:21:15.263Z,1014
2017-09-05T09:22:15.092Z,1014.01
2017-09-05T09:23:15.122Z,1013.96
2017-09-05T09:24:15.153Z,1014
2017-09-05T09:25:15.184Z,1013.95
2017-09-05T09:27:15.253Z,1013.93
2017-09-05T09:28:15.278Z,1013.96
2017-09-05T09:29:15.315Z,1013.96
2017-09-05T09:30:15.441Z,1013.94
2017-09-05T09:31:15.374Z,1013.92
2017-09-05T09:32:15.609Z,1013.96
2017-09-05T09:33:15.435Z,1013.99
2017-09-05T09:34:15.475Z,1013.94
2017-09-05T09:35:15.597Z,1013.93
2017-09-05T09:36:15.633Z,1013.96
2017-09-05T09:37:15.559Z,1013.92
2017-09-05T09:38:15.591Z,1013.96
2017-09-05T09:39:15.624Z,1013.94
2017-09-05T09:40:15.654Z,1013.97
2017-09-05T09:41:15.691Z,1013.93
2017-09-05T09:42:15.714Z,1013.94
2017-09-05T09:43:15.753Z,1013.9
2017-09-05T09:44:15.776Z,1013.93
2017-09-05T09:45:15.811Z,1013.89
2017-09-05T09:46:15.841Z,1013.93
2017-09-05T09:47:15.869Z,1013.92
2017-09-05T09:48:16.006Z,1013.96
2017-09-05T09:49:15.935Z,1013.91
2017-09-05T09:50:15.966Z,1013.89
2017-09-05T09:51:16.141Z,1013.92
2017-09-05T09:52:16.026Z,1013.88
2017-09-05T09:53:16.060Z,1013.87
2017-09-05T09:54:16.082Z,1013.93
2017-09-05T09:55:16.116Z,1013.9
2017-09-05T09:56:16.152Z,1013.89
2017-09-05T09:57:16.179Z,1013.86
2017-09-05T09:59:16.243Z,1013.85
2017-09-05T10:00:16.268Z,1013.88
2017-09-05T10:01:16.294Z,1013.89
2017-09-05T10:02:16.327Z,1013.93
2017-09-05T10:03:16.364Z,1013.89
2017-09-05T10:04:16.395Z,1013.86
2017-09-05T10:05:16.420Z,1013.83
2017-09-05T10:06:16.447Z,1013.9
2017-09-05T10:07:16.576Z,1013.82
2017-09-05T10:08:16.608Z,1013.82
2017-09-05T10:09:16.638Z,1013.77
2017-09-05T10:10:16.569Z,1013.79
2017-09-05T10:11:16.601Z,1013.83
2017-09-05T10:12:16.629Z,1013.82
2017-09-05T10:13:16.662Z,1013.83
2017-09-05T10:15:16.718Z,1013.76
2017-09-05T10:16:16.753Z,1013.77
2017-09-05T10:17:16.777Z,1013.77
2017-09-05T10:18:16.809Z,1013.71
2017-09-05T10:19:16.837Z,1013.72
2017-09-05T10:20:17.016Z,1013.8
2017-09-05T10:21:16.896Z,1013.71
2017-09-05T10:22:16.932Z,1013.74
2017-09-05T10:23:16.960Z,1013.75
2017-09-05T10:24:16.985Z,1013.71
2017-09-05T10:25:17.014Z,1013.69
2017-09-05T10:26:17.047Z,1013.72
2017-09-05T10:27:17.070Z,1013.68
2017-09-05T10:28:17.108Z,1013.71
2017-09-05T10:29:17.133Z,1013.67
2017-09-05T10:31:17.192Z,1013.71
2017-09-05T10:32:17.220Z,1013.74
2017-09-05T10:33:17.252Z,1013.76
2017-09-05T10:34:17.278Z,1013.75
2017-09-05T10:35:17.306Z,1013.72
2017-09-05T10:36:17.338Z,1013.69
2017-09-05T10:37:17.368Z,1013.66
2017-09-05T10:38:17.392Z,1013.67
2017-09-05T10:39:17.424Z,1013.69
2017-09-05T10:40:17.656Z,1013.65
2017-09-05T10:41:17.535Z,1013.62
2017-09-05T10:42:17.511Z,1013.62
2017-09-05T10:43:17.539Z,1013.65
2017-09-05T10:44:17.569Z,1013.62
2017-09-05T10:45:17.592Z,1013.65
2017-09-05T10:47:17.651Z,1013.64
2017-09-05T10:48:17.681Z,1013.65
2017-09-05T10:49:17.707Z,1013.56
2017-09-05T10:50:17.841Z,1013.61
2017-09-05T10:51:17.761Z,1013.58
2017-09-05T10:52:17.889Z,1013.6
2017-09-05T10:53:17.823Z,1013.59
2017-09-05T10:54:17.845Z,1013.62
2017-09-05T10:55:17.875Z,1013.64
2017-09-05T10:56:17.902Z,1013.65
2017-09-05T10:57:17.934Z,1013.63
2017-09-05T10:58:17.958Z,1013.64
2017-09-05T10:59:18.089Z,1013.64
2017-09-05T11:00:18.021Z,1013.67
2017-09-05T11:02:18.078Z,1013.54
2017-09-05T11:03:18.097Z,1013.52
2017-09-05T11:04:18.125Z,1013.57
2017-09-05T11:05:18.257Z,1013.58
2017-09-05T11:06:18.182Z,1013.55
2017-09-05T11:07:18.212Z,1013.62
2017-09-05T11:08:18.240Z,1013.52
2017-09-05T11:09:18.263Z,1013.55
2017-09-05T11:10:18.292Z,1013.47
2017-09-05T11:11:18.320Z,1013.46
2017-09-05T11:12:18.349Z,1013.51
2017-09-05T11:13:18.374Z,1013.47
2017-09-05T11:14:18.405Z,1013.49
2017-09-05T11:15:18.526Z,1013.45
2017-09-05T11:16:18.457Z,1013.45
2017-09-05T11:17:18.488Z,1013.47
2017-09-05T11:18:18.512Z,1013.51
2017-09-05T11:19:18.540Z,1013.46
2017-09-05T11:20:18.562Z,1013.53
2017-09-05T11:21:18.590Z,1013.49
2017-09-05T11:22:18.617Z,1013.46
2017-09-05T11:23:18.746Z,1013.46
2017-09-05T11:24:18.675Z,1013.45
2017-09-05T11:25:18.703Z,1013.43
2017-09-05T11:26:18.726Z,1013.48
2017-09-05T11:27:18.751Z,1013.44
2017-09-05T11:28:18.783Z,1013.39
2017-09-05T11:29:18.808Z,1013.4
2017-09-05T11:30:18.838Z,1013.37
2017-09-05T11:31:19.012Z,1013.37
2017-09-05T11:32:18.890Z,1013.38
2017-09-05T11:34:18.941Z,1013.38
2017-09-05T11:35:18.969Z,1013.33
2017-09-05T11:36:18.999Z,1013.37
2017-09-05T11:37:19.121Z,1013.35
2017-09-05T11:38:19.052Z,1013.32
2017-09-05T11:39:19.076Z,1013.44
2017-09-05T11:40:19.106Z,1013.41
2017-09-05T11:41:19.134Z,1013.38
2017-09-05T11:42:19.161Z,1013.32
2017-09-05T11:43:19.289Z,1013.31
2017-09-05T11:44:19.209Z,1013.31
2017-09-05T11:45:19.242Z,1013.24
2017-09-05T11:46:19.265Z,1013.25
2017-09-05T11:47:19.291Z,1013.23
2017-09-05T11:48:19.317Z,1013.27
2017-09-05T11:50:19.375Z,1013.2
2017-09-05T11:51:19.401Z,1013.16
2017-09-05T11:52:19.426Z,1013.18
2017-09-05T11:53:19.555Z,1013.18
2017-09-05T11:54:19.485Z,1013.18
2017-09-05T11:55:19.514Z,1013.19
2017-09-05T11:56:19.538Z,1013.17
2017-09-05T11:57:19.559Z,1013.21
2017-09-05T11:58:19.586Z,1013.22
2017-09-05T11:59:19.612Z,1013.21
2017-09-05T12:00:19.642Z,1013.17
2017-09-05T12:01:19.673Z,1013.1
2017-09-05T12:02:19.697Z,1013.14
2017-09-05T12:03:19.819Z,1013.07
2017-09-05T12:04:19.749Z,1013.09
2017-09-05T12:06:19.800Z,1013.08
2017-09-05T12:07:19.830Z,1013.06
2017-09-05T12:08:19.853Z,1013.07
2017-09-05T12:09:20.029Z,1013.07
2017-09-05T12:10:19.956Z,1013.04
2017-09-05T12:11:19.936Z,1013.06
2017-09-05T12:12:19.960Z,1013.12
2017-09-05T12:13:19.994Z,1013.09
2017-09-05T12:14:20.117Z,1013.08
2017-09-05T12:15:20.141Z,1013.07
2017-09-05T12:16:20.066Z,1013.13
2017-09-05T12:17:20.093Z,1013.1
2017-09-05T12:18:20.124Z,1013.07
2017-09-05T12:19:20.150Z,1013.05
2017-09-05T12:20:20.177Z,1012.99
2017-09-05T12:22:20.235Z,1012.97
2017-09-05T12:23:20.257Z,1013.01
2017-09-05T12:24:20.283Z,1012.97
2017-09-05T12:25:20.307Z,1012.95
2017-09-05T12:26:20.340Z,1012.97
2017-09-05T12:27:20.469Z,1012.99
2017-09-05T12:28:20.388Z,1012.99
2017-09-05T12:29:20.415Z,1012.96
2017-09-05T12:30:20.541Z,1013.01
2017-09-05T12:31:20.470Z,1013.01
2017-09-05T12:32:20.496Z,1012.98
2017-09-05T12:33:20.528Z,1013.02
2017-09-05T12:34:20.554Z,1013.05
2017-09-05T12:35:20.578Z,1013.03
2017-09-05T12:37:20.637Z,1013.02
2017-09-05T12:38:20.657Z,1013.02
2017-09-05T12:39:20.682Z,1012.99
2017-09-05T12:40:20.812Z,1012.98
2017-09-05T12:41:20.840Z,1012.99
2017-09-05T12:42:20.765Z,1012.99
2017-09-05T12:43:20.793Z,1013.01
2017-09-05T12:44:20.819Z,1013.01
2017-09-05T12:45:20.993Z,1012.98
2017-09-05T12:46:20.871Z,1012.97
2017-09-05T12:47:20.898Z,1012.95
2017-09-05T12:48:20.929Z,1012.93